Time;durP1;ratioP1;P1;durP2;ratioP2;P2;SDS_P1;SDS_P2;PMS_P1;PMS_P2;Temp;Humidity;BMP_temperature;BMP_pressure;BME280_temperature;BME280_humidity;BME280_pressure;Samples;Min_cycle;Max_cycle;Signal;HPM_P1;HPM_P2
2022/11/30 00:00:53;;;;;;;26.25;16.60;;;;;;;;;;5045505;28;20526;-80
2022/11/30 00:03:19;;;;;;;24.23;15.95;;;;;;;;;;5049800;28;20045;-80
2022/11/30 00:05:45;;;;;;;23.27;15.15;;;;;;;;;;5049711;28;20063;-80
2022/11/30 00:08:11;;;;;;;20.90;14.68;;;;;;;;;;5050244;28;20044;-80
2022/11/30 00:10:38;;;;;;;20.52;14.55;;;;;;;;;;5046281;28;20025;-80
2022/11/30 00:13:04;;;;;;;21.40;15.10;;;;;;;;;;5050215;28;20033;-80
2022/11/30 00:15:30;;;;;;;20.35;12.38;;;;;;;;;;5050636;28;20047;-80
2022/11/30 00:17:56;;;;;;;18.08;13.27;;;;;;;;;;5040154;28;20037;-80
2022/11/30 00:20:23;;;;;;;19.27;14.18;;;;;;;;;;5050699;28;20040;-80
2022/11/30 00:22:49;;;;;;;18.02;12.32;;;;;;;;;;5048685;28;20040;-80
2022/11/30 00:25:15;;;;;;;19.90;13.05;;;;;;;;;;5040527;28;20036;-80
2022/11/30 00:27:41;;;;;;;16.50;10.10;;;;;;;;;;5047295;28;20132;-80
2022/11/30 00:30:08;;;;;;;18.38;11.27;;;;;;;;;;5050331;28;20660;-80
2022/11/30 00:32:34;;;;;;;16.27;10.35;;;;;;;;;;5045729;28;20079;-80
2022/11/30 00:35:00;;;;;;;17.27;9.88;;;;;;;;;;5047576;28;20032;-80
2022/11/30 00:37:26;;;;;;;17.23;11.60;;;;;;;;;;5047666;28;20032;-80
2022/11/30 00:39:52;;;;;;;17.48;10.57;;;;;;;;;;5049926;28;20029;-80
2022/11/30 00:42:18;;;;;;;16.23;10.57;;;;;;;;;;5049991;28;20068;-80
2022/11/30 00:44:44;;;;;;;18.92;10.75;;;;;;;;;;5048315;28;20043;-80
2022/11/30 00:47:10;;;;;;;17.35;11.85;;;;;;;;;;5050242;28;20472;-80
2022/11/30 00:49:36;;;;;;;15.38;10.68;;;;;;;;;;5045185;28;20041;-80
2022/11/30 00:52:02;;;;;;;13.38;10.45;;;;;;;;;;5046816;28;20427;-80
2022/11/30 00:54:28;;;;;;;15.48;10.77;;;;;;;;;;5049556;28;20042;-80
2022/11/30 00:56:54;;;;;;;14.95;10.23;;;;;;;;;;5049957;28;20493;-79
2022/11/30 00:59:20;;;;;;;15.30;9.95;;;;;;;;;;5049468;28;20033;-80
2022/11/30 01:01:46;;;;;;;15.80;10.45;;;;;;;;;;5044996;28;20637;-80
2022/11/30 01:04:12;;;;;;;15.98;10.02;;;;;;;;;;5037624;28;20032;-80
2022/11/30 01:06:38;;;;;;;16.15;10.63;;;;;;;;;;5049106;28;20033;-80
2022/11/30 01:09:04;;;;;;;16.50;12.25;;;;;;;;;;5049222;28;20025;-80
2022/11/30 01:11:31;;;;;;;16.17;11.82;;;;;;;;;;5045667;28;20094;-80
2022/11/30 01:14:01;;;;;;;19.65;12.65;;;;;;;;;;5047997;28;20061;-80
2022/11/30 01:16:29;;;;;;;17.60;11.57;;;;;;;;;;5048943;28;20477;-80
2022/11/30 01:18:55;;;;;;;18.05;12.65;;;;;;;;;;5049625;28;20025;-80
2022/11/30 01:21:22;;;;;;;16.55;11.73;;;;;;;;;;5045078;28;20768;-79
2022/11/30 01:23:49;;;;;;;15.70;11.32;;;;;;;;;;5048302;28;20025;-80
2022/11/30 01:26:15;;;;;;;17.98;11.80;;;;;;;;;;5045519;28;20065;-80
2022/11/30 01:28:43;;;;;;;15.15;9.98;;;;;;;;;;5049740;28;20771;-80
2022/11/30 01:31:10;;;;;;;19.85;11.50;;;;;;;;;;5047652;28;20037;-79
2022/11/30 01:33:36;;;;;;;16.80;11.88;;;;;;;;;;5049327;28;20095;-80
2022/11/30 01:36:06;;;;;;;16.65;10.73;;;;;;;;;;5043943;28;20045;-79
2022/11/30 01:38:33;;;;;;;15.57;10.82;;;;;;;;;;5037241;28;20756;-79
2022/11/30 01:40:59;;;;;;;14.48;9.57;;;;;;;;;;5036889;28;20456;-79
2022/11/30 01:43:36;;;;;;;15.95;10.50;;;;;;;;;;5045873;28;20065;-80
2022/11/30 01:46:03;;;;;;;16.77;10.77;;;;;;;;;;5040225;28;20052;-80
2022/11/30 01:48:29;;;;;;;24.45;13.05;;;;;;;;;;5049558;28;20029;-80
2022/11/30 01:50:55;;;;;;;19.80;13.55;;;;;;;;;;5048651;28;20028;-79
2022/11/30 01:53:22;;;;;;;16.20;11.90;;;;;;;;;;5048955;28;20029;-80
2022/11/30 01:55:49;;;;;;;21.00;11.50;;;;;;;;;;5034143;28;20483;-80
2022/11/30 01:58:17;;;;;;;16.60;12.95;;;;;;;;;;5047706;28;20060;-80
2022/11/30 02:00:45;;;;;;;16.48;11.25;;;;;;;;;;5048374;28;20150;-80
2022/11/30 02:03:31;;;;;;;16.48;11.73;;;;;;;;;;5045677;28;20057;-79
2022/11/30 02:05:58;;;;;;;17.83;12.60;;;;;;;;;;5041989;28;20028;-79
2022/11/30 02:08:25;;;;;;;18.35;12.98;;;;;;;;;;5049033;28;20472;-80
2022/11/30 02:10:57;;;;;;;23.88;16.60;;;;;;;;;;5048328;28;20104;-80
2022/11/30 02:13:44;;;;;;;16.67;11.70;;;;;;;;;;5048896;28;20045;-79
2022/11/30 02:16:19;;;;;;;20.48;14.07;;;;;;;;;;5033380;28;20049;-80
2022/11/30 02:18:45;;;;;;;20.15;12.77;;;;;;;;;;5047142;28;20140;-80
2022/11/30 02:21:11;;;;;;;20.08;14.00;;;;;;;;;;5043025;28;20262;-79
2022/11/30 02:23:42;;;;;;;18.63;12.70;;;;;;;;;;5048802;28;20745;-79
2022/11/30 02:26:08;;;;;;;20.10;13.15;;;;;;;;;;5044274;28;20036;-80
2022/11/30 02:28:43;;;;;;;15.98;11.35;;;;;;;;;;5049009;28;20387;-80
2022/11/30 02:31:12;;;;;;;17.70;11.25;;;;;;;;;;5048887;28;20033;-80
2022/11/30 02:33:39;;;;;;;16.00;10.82;;;;;;;;;;5046346;28;20361;-79
2022/11/30 02:36:07;;;;;;;14.82;10.10;;;;;;;;;;5044400;28;20086;-79
2022/11/30 02:38:33;;;;;;;16.85;10.35;;;;;;;;;;5037351;28;20036;-79
2022/11/30 02:40:59;;;;;;;13.63;9.13;;;;;;;;;;5029379;28;20029;-79
2022/11/30 02:43:26;;;;;;;14.98;9.18;;;;;;;;;;5045120;28;20040;-79
2022/11/30 02:45:55;;;;;;;13.65;9.75;;;;;;;;;;5047516;28;20095;-79
2022/11/30 02:48:26;;;;;;;14.30;9.60;;;;;;;;;;5048113;28;20033;-80
2022/11/30 02:50:56;;;;;;;17.15;10.35;;;;;;;;;;5048641;28;20060;-80
2022/11/30 02:53:22;;;;;;;19.10;12.32;;;;;;;;;;5047092;28;20071;-79
2022/11/30 02:55:48;;;;;;;22.20;12.43;;;;;;;;;;5044034;28;20057;-79
2022/11/30 02:58:14;;;;;;;18.80;12.07;;;;;;;;;;5045956;28;20056;-79
2022/11/30 03:00:40;;;;;;;18.90;11.98;;;;;;;;;;5044689;28;20064;-79
2022/11/30 03:03:07;;;;;;;20.17;12.98;;;;;;;;;;5049803;28;20128;-79
2022/11/30 03:05:33;;;;;;;16.48;11.88;;;;;;;;;;5052031;28;20040;-79
2022/11/30 03:07:59;;;;;;;14.93;10.27;;;;;;;;;;5048173;28;20032;-79
2022/11/30 03:10:25;;;;;;;24.30;12.95;;;;;;;;;;5051984;28;20029;-79
2022/11/30 03:12:51;;;;;;;14.35;9.88;;;;;;;;;;5048863;28;20395;-79
2022/11/30 03:15:17;;;;;;;18.05;10.20;;;;;;;;;;5047281;28;20070;-79
2022/11/30 03:17:43;;;;;;;11.35;7.75;;;;;;;;;;5051745;28;20489;-79
2022/11/30 03:20:09;;;;;;;15.23;8.48;;;;;;;;;;5037187;28;20037;-79
2022/11/30 03:22:35;;;;;;;11.82;8.02;;;;;;;;;;5032481;28;20037;-80
2022/11/30 03:25:01;;;;;;;13.27;9.23;;;;;;;;;;5050735;28;20479;-79
2022/11/30 03:27:27;;;;;;;11.52;7.43;;;;;;;;;;5043329;28;20036;-79
2022/11/30 03:29:53;;;;;;;13.48;8.82;;;;;;;;;;5049179;28;20033;-79
2022/11/30 03:32:19;;;;;;;13.88;9.52;;;;;;;;;;5032105;28;20041;-79
2022/11/30 03:34:45;;;;;;;15.13;8.95;;;;;;;;;;5049115;28;20537;-80
2022/11/30 03:37:11;;;;;;;14.48;9.15;;;;;;;;;;5051936;28;20037;-79
2022/11/30 03:39:37;;;;;;;13.07;9.13;;;;;;;;;;5050860;28;20029;-79
2022/11/30 03:42:03;;;;;;;14.18;8.70;;;;;;;;;;5051800;28;20674;-79
2022/11/30 03:44:29;;;;;;;12.50;8.75;;;;;;;;;;5050398;28;20068;-79
2022/11/30 03:46:55;;;;;;;12.07;8.13;;;;;;;;;;5043091;28;20044;-80
2022/11/30 03:49:21;;;;;;;11.38;8.27;;;;;;;;;;5048805;28;20028;-80
2022/11/30 03:51:47;;;;;;;9.70;6.65;;;;;;;;;;5046535;28;20793;-79
2022/11/30 03:54:13;;;;;;;11.57;7.97;;;;;;;;;;5048502;28;20080;-79
2022/11/30 03:56:39;;;;;;;10.25;6.20;;;;;;;;;;5051017;28;20060;-80
2022/11/30 03:59:05;;;;;;;15.02;7.57;;;;;;;;;;5050062;28;20491;-80
2022/11/30 04:01:32;;;;;;;14.35;8.55;;;;;;;;;;5048607;28;20041;-79
2022/11/30 04:03:58;;;;;;;24.80;15.35;;;;;;;;;;5050904;28;20029;-80
2022/11/30 04:06:24;;;;;;;42.85;25.90;;;;;;;;;;5050299;28;20033;-79
2022/11/30 04:08:50;;;;;;;48.00;27.25;;;;;;;;;;5044733;28;20080;-79
2022/11/30 04:11:16;;;;;;;51.88;29.52;;;;;;;;;;5048022;28;20054;-80
2022/11/30 04:13:42;;;;;;;46.15;28.23;;;;;;;;;;5050754;28;20037;-79
2022/11/30 04:16:08;;;;;;;41.72;23.90;;;;;;;;;;5047788;28;20413;-80
2022/11/30 04:18:35;;;;;;;32.83;19.67;;;;;;;;;;5050925;28;20527;-79
2022/11/30 04:21:01;;;;;;;31.48;16.30;;;;;;;;;;5045016;28;20042;-80
2022/11/30 04:23:32;;;;;;;22.25;13.20;;;;;;;;;;5050511;28;20036;-79
2022/11/30 04:25:58;;;;;;;21.15;12.35;;;;;;;;;;5046468;28;20029;-79
2022/11/30 04:28:24;;;;;;;22.38;14.40;;;;;;;;;;5050870;28;20028;-79
2022/11/30 04:30:52;;;;;;;21.73;12.85;;;;;;;;;;5044354;28;20082;-79
2022/11/30 04:33:18;;;;;;;27.90;15.70;;;;;;;;;;5039715;28;20087;-79
2022/11/30 04:35:46;;;;;;;23.98;14.95;;;;;;;;;;5050027;28;20036;-79
2022/11/30 04:38:12;;;;;;;27.65;16.27;;;;;;;;;;5046891;28;20037;-79
2022/11/30 04:40:39;;;;;;;27.70;16.17;;;;;;;;;;5039014;28;20032;-79
2022/11/30 04:43:06;;;;;;;20.58;13.85;;;;;;;;;;5048056;28;20041;-80
2022/11/30 04:45:32;;;;;;;19.92;11.43;;;;;;;;;;5049348;28;20214;-79
2022/11/30 04:47:58;;;;;;;18.02;10.10;;;;;;;;;;5045260;28;20132;-80
2022/11/30 04:50:24;;;;;;;16.38;9.35;;;;;;;;;;5048976;28;20561;-80
2022/11/30 04:52:50;;;;;;;12.85;8.98;;;;;;;;;;5050708;28;20102;-79
2022/11/30 04:55:18;;;;;;;16.80;9.77;;;;;;;;;;5046958;28;20426;-79
2022/11/30 04:57:45;;;;;;;13.07;8.60;;;;;;;;;;5048995;28;20221;-79
2022/11/30 05:00:11;;;;;;;15.57;8.68;;;;;;;;;;5032246;28;20029;-79
2022/11/30 05:02:37;;;;;;;14.35;7.70;;;;;;;;;;5044393;28;20064;-79
2022/11/30 05:05:03;;;;;;;13.35;7.68;;;;;;;;;;5049112;28;20049;-79
2022/11/30 05:07:29;;;;;;;11.45;7.85;;;;;;;;;;5044972;28;20029;-80
2022/11/30 05:09:55;;;;;;;12.52;7.85;;;;;;;;;;5048476;28;20793;-79
2022/11/30 05:12:21;;;;;;;11.27;7.25;;;;;;;;;;5049101;28;20114;-79
2022/11/30 05:14:47;;;;;;;13.02;7.30;;;;;;;;;;5049761;28;20475;-80
2022/11/30 05:17:13;;;;;;;9.02;5.97;;;;;;;;;;5044470;28;20037;-79
2022/11/30 05:19:39;;;;;;;12.82;6.63;;;;;;;;;;5046571;28;20059;-79
2022/11/30 05:22:05;;;;;;;13.52;6.57;;;;;;;;;;5038538;28;20064;-79
2022/11/30 05:24:31;;;;;;;14.38;7.72;;;;;;;;;;5041440;28;20036;-79
2022/11/30 05:26:57;;;;;;;18.17;12.13;;;;;;;;;;5058606;28;20032;-79
2022/11/30 05:29:23;;;;;;;18.95;12.88;;;;;;;;;;5045058;28;20040;-79
2022/11/30 05:31:49;;;;;;;18.92;11.38;;;;;;;;;;5036115;28;20028;-79
2022/11/30 05:34:15;;;;;;;21.45;11.13;;;;;;;;;;5049243;28;20478;-79
2022/11/30 05:36:41;;;;;;;20.25;11.45;;;;;;;;;;5036981;28;20044;-79
2022/11/30 05:39:07;;;;;;;25.92;15.40;;;;;;;;;;5047910;28;20029;-79
2022/11/30 05:41:33;;;;;;;26.67;14.73;;;;;;;;;;5049060;28;20045;-80
2022/11/30 05:43:59;;;;;;;29.95;18.70;;;;;;;;;;5040975;28;20029;-79
2022/11/30 05:46:25;;;;;;;38.17;25.05;;;;;;;;;;5040492;28;20108;-79
2022/11/30 05:48:51;;;;;;;38.08;22.70;;;;;;;;;;5048367;28;20024;-80
2022/11/30 05:51:18;;;;;;;37.83;23.92;;;;;;;;;;5042905;28;20040;-80
2022/11/30 05:53:45;;;;;;;31.55;18.25;;;;;;;;;;5048350;28;20033;-79
2022/11/30 05:56:12;;;;;;;29.55;18.58;;;;;;;;;;5049026;28;20036;-79
2022/11/30 05:58:38;;;;;;;26.95;15.80;;;;;;;;;;5042071;28;20064;-80
2022/11/30 06:01:05;;;;;;;25.95;14.85;;;;;;;;;;5048358;28;20056;-80
2022/11/30 06:03:32;;;;;;;27.05;15.95;;;;;;;;;;5048618;28;20488;-79
2022/11/30 06:05:58;;;;;;;24.88;16.50;;;;;;;;;;5048156;28;20025;-79
2022/11/30 06:08:25;;;;;;;20.85;14.45;;;;;;;;;;5048908;28;20029;-79
2022/11/30 06:10:51;;;;;;;16.85;10.65;;;;;;;;;;5048103;28;20029;-79
2022/11/30 06:13:17;;;;;;;19.20;11.43;;;;;;;;;;5045629;28;20033;-79
2022/11/30 06:15:43;;;;;;;20.65;11.00;;;;;;;;;;5047294;28;20059;-79
2022/11/30 06:18:10;;;;;;;18.58;11.40;;;;;;;;;;5049188;28;20048;-79
2022/11/30 06:20:36;;;;;;;14.40;8.23;;;;;;;;;;5045390;28;20029;-79
2022/11/30 06:23:03;;;;;;;11.68;6.88;;;;;;;;;;5039499;28;20037;-79
2022/11/30 06:25:36;;;;;;;12.10;6.90;;;;;;;;;;5044348;28;20036;-79
2022/11/30 06:28:03;;;;;;;12.75;6.63;;;;;;;;;;5047997;28;20036;-80
2022/11/30 06:30:29;;;;;;;12.68;6.97;;;;;;;;;;5044233;28;20415;-79
2022/11/30 06:32:55;;;;;;;12.90;5.88;;;;;;;;;;5048729;28;20032;-79
2022/11/30 06:35:21;;;;;;;16.65;12.40;;;;;;;;;;5050467;28;20529;-79
2022/11/30 06:37:47;;;;;;;11.18;6.40;;;;;;;;;;5052071;28;20033;-79
2022/11/30 06:40:13;;;;;;;11.27;6.43;;;;;;;;;;5051224;28;20113;-79
2022/11/30 06:42:39;;;;;;;10.25;5.38;;;;;;;;;;5052997;28;20658;-79
2022/11/30 06:45:06;;;;;;;14.82;5.72;;;;;;;;;;5052828;28;20078;-79
2022/11/30 06:47:32;;;;;;;16.77;8.68;;;;;;;;;;5053914;28;20037;-79
2022/11/30 06:49:58;;;;;;;21.75;10.82;;;;;;;;;;5056868;28;20028;-79
2022/11/30 06:52:24;;;;;;;23.75;12.73;;;;;;;;;;5044261;28;20041;-79
2022/11/30 06:54:50;;;;;;;27.95;12.88;;;;;;;;;;5052660;28;20601;-80
2022/11/30 06:57:16;;;;;;;18.70;11.40;;;;;;;;;;5051089;28;20033;-80
2022/11/30 06:59:43;;;;;;;19.15;10.68;;;;;;;;;;5044023;28;20045;-79
2022/11/30 07:02:12;;;;;;;21.45;12.73;;;;;;;;;;5052563;28;20056;-79
2022/11/30 07:04:38;;;;;;;22.02;12.50;;;;;;;;;;5043091;28;20079;-79
2022/11/30 07:07:06;;;;;;;28.23;12.68;;;;;;;;;;5054143;28;20112;-79
2022/11/30 07:09:32;;;;;;;19.90;12.23;;;;;;;;;;5048224;28;20025;-79
2022/11/30 07:11:58;;;;;;;22.77;11.55;;;;;;;;;;5052231;28;20037;-79
2022/11/30 07:14:24;;;;;;;22.77;13.23;;;;;;;;;;5061283;28;20359;-78
2022/11/30 07:16:50;;;;;;;14.45;7.97;;;;;;;;;;5044542;28;20116;-79
2022/11/30 07:19:16;;;;;;;9.38;5.32;;;;;;;;;;5050075;28;20047;-78
2022/11/30 07:21:42;;;;;;;7.80;4.20;;;;;;;;;;5052638;28;20033;-79
2022/11/30 07:26:55;;;;;;;8.30;4.45;;;;;;;;;;5052564;28;20494;-78
2022/11/30 07:29:21;;;;;;;11.38;4.30;;;;;;;;;;5051732;28;20124;-78
2022/11/30 07:31:51;;;;;;;8.55;4.32;;;;;;;;;;5051437;28;20136;-78
2022/11/30 07:34:17;;;;;;;10.93;6.60;;;;;;;;;;5048382;28;20044;-78
2022/11/30 07:36:43;;;;;;;11.52;5.15;;;;;;;;;;5052487;28;20048;-78
2022/11/30 07:39:10;;;;;;;9.35;4.35;;;;;;;;;;5050972;28;20074;-78
2022/11/30 07:41:36;;;;;;;7.03;3.95;;;;;;;;;;5052078;28;20463;-79
2022/11/30 07:44:06;;;;;;;11.38;4.45;;;;;;;;;;5047287;28;20021;-79
2022/11/30 07:46:34;;;;;;;8.18;3.70;;;;;;;;;;5050929;28;20949;-78
2022/11/30 07:49:00;;;;;;;11.60;4.68;;;;;;;;;;5044799;28;20026;-79
2022/11/30 07:51:26;;;;;;;12.35;5.45;;;;;;;;;;5050426;28;20044;-79
2022/11/30 07:53:54;;;;;;;7.88;3.67;;;;;;;;;;5054372;28;20028;-79
2022/11/30 07:56:20;;;;;;;10.30;4.68;;;;;;;;;;5058531;28;20091;-79
2022/11/30 07:58:48;;;;;;;7.60;3.60;;;;;;;;;;5048454;28;20040;-79
2022/11/30 08:01:15;;;;;;;6.75;3.70;;;;;;;;;;5051144;28;20124;-79
2022/11/30 08:03:41;;;;;;;8.52;4.57;;;;;;;;;;5049297;28;20824;-79
2022/11/30 08:06:14;;;;;;;10.38;3.95;;;;;;;;;;5047191;28;20035;-79
2022/11/30 08:08:42;;;;;;;9.18;5.20;;;;;;;;;;5031717;28;20028;-79
2022/11/30 08:11:09;;;;;;;12.63;6.45;;;;;;;;;;5050815;28;20356;-79
2022/11/30 08:13:35;;;;;;;12.43;6.53;;;;;;;;;;5054346;28;20037;-79
2022/11/30 08:16:02;;;;;;;17.00;8.05;;;;;;;;;;5051149;28;20032;-79
2022/11/30 08:18:29;;;;;;;23.77;11.18;;;;;;;;;;5045605;28;20082;-79
2022/11/30 08:20:58;;;;;;;17.42;8.88;;;;;;;;;;5046081;28;20059;-79
2022/11/30 08:23:25;;;;;;;15.57;7.15;;;;;;;;;;5048922;28;20036;-79
2022/11/30 08:25:51;;;;;;;16.20;7.22;;;;;;;;;;5050108;28;20017;-80
2022/11/30 08:28:17;;;;;;;16.13;7.07;;;;;;;;;;5044490;28;20036;-79
2022/11/30 08:30:43;;;;;;;14.50;5.35;;;;;;;;;;5046736;28;20021;-79
2022/11/30 08:33:09;;;;;;;12.20;6.18;;;;;;;;;;5051072;28;20113;-79
2022/11/30 08:35:35;;;;;;;13.98;7.10;;;;;;;;;;5050688;28;20370;-79
2022/11/30 08:38:00;;;;;;;14.15;8.07;;;;;;;;;;5049045;28;20048;-79
2022/11/30 08:40:26;;;;;;;14.30;10.23;;;;;;;;;;5048613;28;20147;-79
2022/11/30 08:42:52;;;;;;;18.48;12.70;;;;;;;;;;5050366;28;20044;-79
2022/11/30 08:45:18;;;;;;;19.55;12.38;;;;;;;;;;5048191;28;20028;-79
2022/11/30 08:47:44;;;;;;;17.63;11.15;;;;;;;;;;5047574;28;20041;-79
2022/11/30 08:50:11;;;;;;;17.65;11.40;;;;;;;;;;5050101;28;20029;-79
2022/11/30 08:52:37;;;;;;;14.65;9.05;;;;;;;;;;5052585;28;20117;-79
2022/11/30 08:55:03;;;;;;;15.55;7.40;;;;;;;;;;5052256;28;20029;-79
2022/11/30 08:57:30;;;;;;;12.25;7.70;;;;;;;;;;5047385;28;20047;-79
2022/11/30 08:59:56;;;;;;;9.75;5.55;;;;;;;;;;5049059;28;20025;-79
2022/11/30 09:02:22;;;;;;;13.43;7.22;;;;;;;;;;5048983;28;20439;-79
2022/11/30 09:04:49;;;;;;;12.55;6.35;;;;;;;;;;5049699;28;20061;-79
2022/11/30 09:07:16;;;;;;;9.57;4.35;;;;;;;;;;5049321;28;20029;-79
2022/11/30 09:09:42;;;;;;;11.35;7.13;;;;;;;;;;5049303;28;20071;-79
2022/11/30 09:12:08;;;;;;;12.07;8.18;;;;;;;;;;5050559;28;20068;-79
2022/11/30 09:14:34;;;;;;;11.23;6.75;;;;;;;;;;5046278;28;20029;-79
2022/11/30 09:17:00;;;;;;;12.25;6.05;;;;;;;;;;5048244;28;20036;-79
2022/11/30 09:19:26;;;;;;;11.48;7.47;;;;;;;;;;5047705;28;20388;-79
2022/11/30 09:21:52;;;;;;;7.53;3.45;;;;;;;;;;5049760;28;20048;-79
2022/11/30 09:24:18;;;;;;;5.28;2.42;;;;;;;;;;5041226;28;20029;-78
2022/11/30 09:26:44;;;;;;;9.77;3.10;;;;;;;;;;5044972;28;20089;-78
2022/11/30 09:29:10;;;;;;;10.77;4.05;;;;;;;;;;5049132;28;20032;-78
2022/11/30 09:31:36;;;;;;;8.40;3.72;;;;;;;;;;5049257;28;20037;-79
2022/11/30 09:34:02;;;;;;;8.80;3.40;;;;;;;;;;5049573;28;20028;-79
2022/11/30 09:36:29;;;;;;;5.78;2.95;;;;;;;;;;5050719;28;20032;-79
2022/11/30 09:38:56;;;;;;;7.85;3.55;;;;;;;;;;5050018;28;20021;-79
2022/11/30 09:41:24;;;;;;;17.77;5.15;;;;;;;;;;5034685;28;20034;-79
2022/11/30 09:43:54;;;;;;;10.02;4.07;;;;;;;;;;5037166;28;20115;-78
2022/11/30 09:46:24;;;;;;;7.53;2.83;;;;;;;;;;5046873;28;20371;-78
2022/11/30 09:48:53;;;;;;;7.30;2.67;;;;;;;;;;5051295;28;20765;-79
2022/11/30 09:51:27;;;;;;;12.32;2.83;;;;;;;;;;5050292;28;20529;-79
2022/11/30 09:53:58;;;;;;;6.60;2.70;;;;;;;;;;5057070;28;20021;-80
2022/11/30 09:56:30;;;;;;;7.90;2.50;;;;;;;;;;5058997;28;20072;-79
2022/11/30 09:59:01;;;;;;;6.63;2.15;;;;;;;;;;5050001;28;20171;-79
2022/11/30 10:01:27;;;;;;;7.20;2.93;;;;;;;;;;5059765;28;20041;-79
2022/11/30 10:03:54;;;;;;;5.05;2.28;;;;;;;;;;5051532;28;20086;-79
2022/11/30 10:06:24;;;;;;;5.32;2.35;;;;;;;;;;5050364;28;20036;-80
2022/11/30 10:08:56;;;;;;;7.53;2.58;;;;;;;;;;5045733;28;20126;-79
2022/11/30 10:11:41;;;;;;;7.32;3.15;;;;;;;;;;5053984;28;20442;-79
2022/11/30 10:14:22;;;;;;;10.82;3.75;;;;;;;;;;5056141;28;20040;-79
2022/11/30 10:17:05;;;;;;;5.88;3.00;;;;;;;;;;5057861;28;20037;-79
2022/11/30 10:19:30;;;;;;;;;;;;;;;;;;5055657;28;20028;-79
2022/11/30 10:22:17;;;;;;;6.85;2.58;;;;;;;;;;5046934;28;19917;-79
2022/11/30 10:25:15;;;;;;;5.32;2.65;;;;;;;;;;5052783;28;20028;-79
2022/11/30 10:27:47;;;;;;;6.22;2.40;;;;;;;;;;4998879;28;20045;-79
2022/11/30 10:30:24;;;;;;;6.10;2.50;;;;;;;;;;5051455;28;20107;-79
2022/11/30 10:32:54;;;;;;;5.18;2.40;;;;;;;;;;5044251;28;20041;-79
2022/11/30 10:35:33;;;;;;;4.13;1.98;;;;;;;;;;5046187;28;20033;-79
2022/11/30 10:38:02;;;;;;;7.13;2.47;;;;;;;;;;5070282;28;20115;-80
2022/11/30 10:40:37;;;;;;;4.40;2.22;;;;;;;;;;5054588;28;20036;-79
2022/11/30 10:43:07;;;;;;;4.60;2.30;;;;;;;;;;5049140;28;21641;-80
2022/11/30 10:45:37;;;;;;;6.80;2.80;;;;;;;;;;5054380;28;20033;-79
2022/11/30 10:48:10;;;;;;;10.63;3.25;;;;;;;;;;5056942;28;20032;-80
2022/11/30 10:50:36;;;;;;;7.13;2.95;;;;;;;;;;5055333;28;20131;-80
2022/11/30 10:53:02;;;;;;;5.82;2.75;;;;;;;;;;5056053;28;20151;-80
2022/11/30 10:55:35;;;;;;;5.75;2.50;;;;;;;;;;5051938;28;20022;-79
2022/11/30 10:58:18;;;;;;;8.98;3.35;;;;;;;;;;5053369;28;20067;-79
2022/11/30 11:00:49;;;;;;;4.88;2.88;;;;;;;;;;5050890;28;20119;-79
2022/11/30 11:03:25;;;;;;;8.40;3.80;;;;;;;;;;5050264;28;20057;-79
2022/11/30 11:06:11;;;;;;;6.13;3.55;;;;;;;;;;5065512;28;20036;-79
2022/11/30 11:08:37;;;;;;;9.27;4.55;;;;;;;;;;5053598;28;20033;-79
2022/11/30 11:11:03;;;;;;;10.13;4.78;;;;;;;;;;5063784;28;20051;-79
2022/11/30 11:13:37;;;;;;;6.38;3.58;;;;;;;;;;5056839;28;20029;-79
2022/11/30 11:16:04;;;;;;;8.05;4.95;;;;;;;;;;5061987;28;20021;-80
2022/11/30 11:18:53;;;;;;;9.20;4.22;;;;;;;;;;5070835;23;20128;-80
2022/11/30 11:21:21;;;;;;;6.60;2.13;;;;;;;;;;5031560;28;20025;-79
2022/11/30 11:23:48;;;;;;;5.10;2.38;;;;;;;;;;5032880;28;20060;-79
2022/11/30 11:26:19;;;;;;;7.72;2.63;;;;;;;;;;5029910;28;20018;-79
2022/11/30 11:28:46;;;;;;;4.40;2.63;;;;;;;;;;5033663;28;20021;-80
2022/11/30 11:31:16;;;;;;;4.20;1.98;;;;;;;;;;5032537;28;20068;-79
2022/11/30 11:33:50;;;;;;;3.55;1.60;;;;;;;;;;5029356;28;20357;-79
2022/11/30 11:36:24;;;;;;;5.10;2.00;;;;;;;;;;5033262;28;20641;-79
2022/11/30 11:38:50;;;;;;;5.32;2.78;;;;;;;;;;5028372;28;20065;-79
2022/11/30 11:41:22;;;;;;;6.78;2.53;;;;;;;;;;5032359;28;20040;-79
2022/11/30 11:44:02;;;;;;;8.75;2.83;;;;;;;;;;5032868;28;20026;-79
2022/11/30 11:46:29;;;;;;;5.30;2.30;;;;;;;;;;5030155;28;20045;-80
2022/11/30 11:49:00;;;;;;;3.67;1.60;;;;;;;;;;5010308;28;20037;-79
2022/11/30 11:51:53;;;;;;;4.10;1.90;;;;;;;;;;5013901;28;20516;-79
2022/11/30 11:54:25;;;;;;;4.30;2.25;;;;;;;;;;5027475;28;20049;-80
2022/11/30 11:56:53;;;;;;;10.32;4.35;;;;;;;;;;5015921;28;20034;-79
2022/11/30 11:59:22;;;;;;;8.52;4.03;;;;;;;;;;5032984;28;20037;-79
2022/11/30 12:01:51;;;;;;;8.45;3.05;;;;;;;;;;5031843;28;20376;-79
2022/11/30 12:04:17;;;;;;;5.93;2.55;;;;;;;;;;5032288;28;20029;-79
2022/11/30 12:06:44;;;;;;;6.85;2.33;;;;;;;;;;5030685;28;20376;-79
2022/11/30 12:09:20;;;;;;;10.20;3.28;;;;;;;;;;5031589;28;20113;-79
2022/11/30 12:11:47;;;;;;;11.98;5.15;;;;;;;;;;5029853;28;20084;-79
2022/11/30 12:14:14;;;;;;;9.32;4.38;;;;;;;;;;5029457;28;20109;-79
2022/11/30 12:16:48;;;;;;;5.20;2.60;;;;;;;;;;5028010;28;20025;-79
2022/11/30 12:19:14;;;;;;;3.55;1.75;;;;;;;;;;5023760;28;20042;-79
2022/11/30 12:21:39;;;;;;;3.30;1.77;;;;;;;;;;5028538;28;20606;-79
2022/11/30 12:24:12;;;;;;;3.60;2.15;;;;;;;;;;4999359;28;20037;-79
2022/11/30 12:26:40;;;;;;;7.78;1.98;;;;;;;;;;5035797;28;20030;-80
2022/11/30 12:29:15;;;;;;;2.88;1.30;;;;;;;;;;5011038;28;20026;-79
2022/11/30 12:31:41;;;;;;;4.30;1.65;;;;;;;;;;5026428;28;20030;-79
2022/11/30 12:34:31;;;;;;;3.92;1.90;;;;;;;;;;5016123;28;20353;-79
2022/11/30 12:37:15;;;;;;;4.63;1.90;;;;;;;;;;5022028;28;20056;-79
2022/11/30 12:39:41;;;;;;;6.72;2.10;;;;;;;;;;5007958;28;20435;-79
2022/11/30 12:42:12;;;;;;;7.75;2.38;;;;;;;;;;5029916;28;20061;-79
2022/11/30 12:44:39;;;;;;;6.28;3.08;;;;;;;;;;5028538;28;20064;-79
2022/11/30 12:47:19;;;;;;;6.40;2.90;;;;;;;;;;5030430;28;20029;-78
2022/11/30 12:49:45;;;;;;;6.88;2.65;;;;;;;;;;5030816;28;20022;-79
2022/11/30 12:52:30;;;;;;;6.90;3.00;;;;;;;;;;5019785;28;20141;-79
2022/11/30 12:55:03;;;;;;;7.50;3.17;;;;;;;;;;5033300;28;20040;-79
2022/11/30 12:57:36;;;;;;;8.07;3.47;;;;;;;;;;4997244;28;20034;-79
2022/11/30 13:00:13;;;;;;;5.15;3.13;;;;;;;;;;5027732;28;20352;-80
2022/11/30 13:02:54;;;;;;;5.68;1.90;;;;;;;;;;5032341;28;20477;-79
2022/11/30 13:05:57;;;;;;;7.63;2.80;;;;;;;;;;5041215;23;20084;-80
2022/11/30 13:08:56;;;;;;;5.05;2.33;;;;;;;;;;5036350;28;20043;-80
2022/11/30 13:11:29;;;;;;;8.80;3.38;;;;;;;;;;5015854;28;20110;-80
2022/11/30 13:13:59;;;;;;;6.70;2.58;;;;;;;;;;5036890;28;20036;-80
2022/11/30 13:16:28;;;;;;;5.25;1.80;;;;;;;;;;5036769;28;20024;-80
2022/11/30 13:19:34;;;;;;;4.80;1.90;;;;;;;;;;5036760;28;20110;-80
2022/11/30 13:22:08;;;;;;;8.60;5.15;;;;;;;;;;5053241;28;20063;-80
2022/11/30 13:24:45;;;;;;;13.00;5.07;;;;;;;;;;5029586;28;20036;-79
2022/11/30 13:27:21;;;;;;;8.77;4.72;;;;;;;;;;5050817;28;20037;-79
2022/11/30 13:29:50;;;;;;;9.02;4.45;;;;;;;;;;5050361;28;20372;-79
2022/11/30 13:32:16;;;;;;;8.18;4.30;;;;;;;;;;5028092;28;20025;-79
2022/11/30 13:34:42;;;;;;;7.30;3.30;;;;;;;;;;5041621;28;20033;-80
2022/11/30 13:37:13;;;;;;;6.28;2.83;;;;;;;;;;5030426;28;20047;-79
2022/11/30 13:39:45;;;;;;;11.40;2.35;;;;;;;;;;5039045;28;20024;-79
2022/11/30 13:42:19;;;;;;;6.82;2.45;;;;;;;;;;5040916;28;20033;-79
2022/11/30 13:44:45;;;;;;;5.28;2.75;;;;;;;;;;5035507;28;20029;-79
2022/11/30 13:47:14;;;;;;;7.40;3.17;;;;;;;;;;5046349;28;20033;-79
2022/11/30 13:49:40;;;;;;;6.15;3.15;;;;;;;;;;5036095;28;20032;-79
2022/11/30 13:52:06;;;;;;;7.85;2.35;;;;;;;;;;5010747;28;20381;-79
2022/11/30 13:54:43;;;;;;;4.57;1.90;;;;;;;;;;5033851;28;20029;-80
2022/11/30 13:57:29;;;;;;;5.07;2.38;;;;;;;;;;5000217;28;20030;-80
2022/11/30 13:59:56;;;;;;;6.38;2.40;;;;;;;;;;5035893;28;20041;-78
2022/11/30 14:02:40;;;;;;;6.07;2.22;;;;;;;;;;5032402;28;20029;-79
2022/11/30 14:05:16;;;;;;;5.95;2.25;;;;;;;;;;5031224;28;20042;-79
2022/11/30 14:07:51;;;;;;;8.73;3.40;;;;;;;;;;5024948;28;20030;-79
2022/11/30 14:10:31;;;;;;;8.82;3.70;;;;;;;;;;5042127;28;20033;-79
2022/11/30 14:12:57;;;;;;;11.93;4.72;;;;;;;;;;5013121;28;20036;-78
2022/11/30 14:15:30;;;;;;;10.02;3.72;;;;;;;;;;5017594;28;20037;-79
2022/11/30 14:17:57;;;;;;;8.98;4.40;;;;;;;;;;5015100;28;20122;-79
2022/11/30 14:20:24;;;;;;;8.20;3.60;;;;;;;;;;5033026;28;20483;-79
2022/11/30 14:22:51;;;;;;;10.50;4.18;;;;;;;;;;5019318;28;20017;-79
2022/11/30 14:25:19;;;;;;;12.85;5.53;;;;;;;;;;5043519;28;20478;-79
2022/11/30 14:27:47;;;;;;;14.50;5.55;;;;;;;;;;5023363;28;20034;-79
2022/11/30 14:30:16;;;;;;;14.10;5.95;;;;;;;;;;5029462;28;20095;-79
2022/11/30 14:32:43;;;;;;;8.38;4.10;;;;;;;;;;5019576;28;20107;-79
2022/11/30 14:35:14;;;;;;;9.55;3.53;;;;;;;;;;5036519;28;20388;-79
2022/11/30 14:37:43;;;;;;;9.48;3.65;;;;;;;;;;5032281;28;20073;-79
2022/11/30 14:40:13;;;;;;;12.73;4.07;;;;;;;;;;5022849;28;20042;-79
2022/11/30 14:42:46;;;;;;;12.88;3.80;;;;;;;;;;5021268;28;20086;-79